createdAt,value
2023-05-21T00:00:08.184Z,12.90
2023-05-21T00:02:39.486Z,12.90
2023-05-21T00:05:11.643Z,13.10
2023-05-21T00:07:41.131Z,13.00
2023-05-21T00:10:08.321Z,13.00
2023-05-21T00:12:35.078Z,12.90
2023-05-21T00:15:01.812Z,12.90
2023-05-21T00:17:28.729Z,12.90
2023-05-21T00:19:56.736Z,12.80
2023-05-21T00:22:24.026Z,12.80
2023-05-21T00:24:50.774Z,12.80
2023-05-21T00:27:17.624Z,12.70
2023-05-21T00:29:44.735Z,12.70
2023-05-21T00:32:11.559Z,12.70
2023-05-21T00:34:38.625Z,12.60
2023-05-21T00:37:05.303Z,12.60
2023-05-21T00:39:31.959Z,12.60
2023-05-21T00:41:58.621Z,12.60
2023-05-21T00:44:25.397Z,12.60
2023-05-21T00:46:55.766Z,12.50
2023-05-21T00:49:24.298Z,12.50
2023-05-21T00:51:51.869Z,12.50
2023-05-21T00:54:18.901Z,12.50
2023-05-21T00:56:47.371Z,12.50
2023-05-21T00:59:16.452Z,12.50
2023-05-21T01:01:46.131Z,12.40
2023-05-21T01:04:13.105Z,12.30
2023-05-21T01:06:39.811Z,12.30
2023-05-21T01:09:07.150Z,12.30
2023-05-21T01:11:44.695Z,12.30
2023-05-21T01:14:13.244Z,12.30
2023-05-21T01:16:42.717Z,12.30
2023-05-21T01:19:14.008Z,12.20
2023-05-21T01:21:44.845Z,12.30
2023-05-21T01:24:11.639Z,12.30
2023-05-21T01:26:38.902Z,12.30
2023-05-21T01:29:13.104Z,12.30
2023-05-21T01:32:11.763Z,12.10
2023-05-21T01:35:08.048Z,12.10
2023-05-21T01:37:45.610Z,12.10
2023-05-21T01:40:22.793Z,12.00
2023-05-21T01:42:49.560Z,11.90
2023-05-21T01:45:17.920Z,11.90
2023-05-21T01:47:48.832Z,11.80
2023-05-21T01:50:16.367Z,11.80
2023-05-21T01:52:53.880Z,11.90
2023-05-21T01:55:24.522Z,11.90
2023-05-21T01:57:53.459Z,12.00
2023-05-21T02:00:25.362Z,12.00
2023-05-21T02:02:52.176Z,12.00
2023-05-21T02:05:19.142Z,11.90
2023-05-21T02:07:47.400Z,11.90
2023-05-21T02:10:14.552Z,11.90
2023-05-21T02:12:41.588Z,12.00
2023-05-21T02:15:09.293Z,12.00
2023-05-21T02:17:36.088Z,12.00
2023-05-21T02:20:11.326Z,12.00
2023-05-21T02:22:46.619Z,12.00
2023-05-21T02:25:18.271Z,12.00
2023-05-21T02:27:46.746Z,12.10
2023-05-21T02:30:15.067Z,12.10
2023-05-21T02:32:43.101Z,12.10
2023-05-21T02:35:11.507Z,12.10
2023-05-21T02:37:40.362Z,12.10
2023-05-21T02:40:08.006Z,12.00
2023-05-21T02:42:36.452Z,11.90
2023-05-21T02:45:03.440Z,11.90
2023-05-21T02:47:30.539Z,11.90
2023-05-21T02:49:59.964Z,11.90
2023-05-21T02:52:26.674Z,11.90
2023-05-21T02:54:53.476Z,12.00
2023-05-21T02:57:20.644Z,12.00
2023-05-21T02:59:47.673Z,12.00
2023-05-21T03:02:14.459Z,12.00
2023-05-21T03:04:46.248Z,12.00
2023-05-21T03:07:14.535Z,12.10
2023-05-21T03:09:42.266Z,12.00
2023-05-21T03:12:09.597Z,12.00
2023-05-21T03:14:37.422Z,11.90
2023-05-21T03:17:05.854Z,12.00
2023-05-21T03:19:36.550Z,12.00
2023-05-21T03:22:04.784Z,12.00
2023-05-21T03:24:35.179Z,11.90
2023-05-21T03:27:06.317Z,11.90
2023-05-21T03:29:33.919Z,11.90
2023-05-21T03:32:02.830Z,11.90
2023-05-21T03:34:30.980Z,11.90
2023-05-21T03:36:58.804Z,11.90
2023-05-21T03:39:26.545Z,11.80
2023-05-21T03:41:55.313Z,11.80
2023-05-21T03:44:32.335Z,11.90
2023-05-21T03:47:12.150Z,12.00
2023-05-21T03:49:38.874Z,12.00
2023-05-21T03:52:06.691Z,12.00
2023-05-21T03:54:33.384Z,12.00
2023-05-21T03:57:03.945Z,12.00
2023-05-21T03:59:30.644Z,11.90
2023-05-21T04:01:58.712Z,12.00
2023-05-21T04:04:26.013Z,11.90
2023-05-21T04:06:54.207Z,12.00
2023-05-21T04:09:22.173Z,12.10
2023-05-21T04:11:48.860Z,12.10
2023-05-21T04:14:15.916Z,12.20
2023-05-21T04:16:44.004Z,12.20
2023-05-21T04:19:10.830Z,12.20
2023-05-21T04:21:37.575Z,12.30
2023-05-21T04:24:05.166Z,12.30
2023-05-21T04:27:10.540Z,12.40
2023-05-21T04:29:37.687Z,12.50
2023-05-21T04:32:05.253Z,12.50
2023-05-21T04:34:33.914Z,12.50
2023-05-21T04:37:02.186Z,12.50
2023-05-21T04:39:31.385Z,12.60
2023-05-21T04:41:58.029Z,12.60
2023-05-21T04:44:25.467Z,12.70
2023-05-21T04:46:52.552Z,12.60
2023-05-21T04:49:20.813Z,12.70
2023-05-21T04:51:47.485Z,12.70
2023-05-21T04:54:14.215Z,12.80
2023-05-21T04:56:41.371Z,12.80
2023-05-21T04:59:08.158Z,12.70
2023-05-21T05:01:35.108Z,12.80
2023-05-21T05:04:01.987Z,12.90
2023-05-21T05:06:29.085Z,12.90
2023-05-21T05:08:55.992Z,12.90
2023-05-21T05:11:22.846Z,12.90
2023-05-21T05:13:50.952Z,12.90
2023-05-21T05:16:19.478Z,12.90
2023-05-21T05:18:46.280Z,13.00
2023-05-21T05:21:12.959Z,13.00
2023-05-21T05:23:39.649Z,13.00
2023-05-21T05:26:08.122Z,13.00
2023-05-21T05:28:34.824Z,12.90
2023-05-21T05:31:01.986Z,12.90
2023-05-21T05:33:28.858Z,12.90
2023-05-21T05:35:55.697Z,13.00
2023-05-21T05:38:22.367Z,13.00
2023-05-21T05:40:49.037Z,13.10
2023-05-21T05:43:16.307Z,13.10
2023-05-21T05:45:43.470Z,13.10
2023-05-21T05:48:13.806Z,13.10
2023-05-21T05:50:41.515Z,13.30
2023-05-21T05:53:09.029Z,13.40
2023-05-21T05:55:35.876Z,13.50
2023-05-21T05:58:02.788Z,13.40
2023-05-21T06:00:29.677Z,13.40
2023-05-21T06:02:59.119Z,13.30
2023-05-21T06:05:25.983Z,13.30
2023-05-21T06:07:52.677Z,13.40
2023-05-21T06:10:20.576Z,13.50
2023-05-21T06:12:47.465Z,13.40
2023-05-21T06:15:19.266Z,13.50
2023-05-21T06:17:46.093Z,13.60
2023-05-21T06:20:13.261Z,13.80
2023-05-21T06:22:40.093Z,13.90
2023-05-21T06:25:10.475Z,13.80
2023-05-21T06:27:38.311Z,13.90
2023-05-21T06:30:09.920Z,13.80
2023-05-21T06:32:36.682Z,13.90
2023-05-21T06:35:04.685Z,13.80
2023-05-21T06:37:31.350Z,13.80
2023-05-21T06:39:58.072Z,13.80
2023-05-21T06:42:24.854Z,14.00
2023-05-21T06:45:14.342Z,14.20
2023-05-21T06:47:43.935Z,14.50
2023-05-21T06:50:10.813Z,14.60
2023-05-21T06:52:37.550Z,14.60
2023-05-21T06:55:04.821Z,14.80
2023-05-21T06:57:49.292Z,15.10
2023-05-21T07:00:16.159Z,15.50
2023-05-21T07:02:43.045Z,15.70
2023-05-21T07:05:09.999Z,15.90
2023-05-21T07:07:36.952Z,15.90
2023-05-21T07:10:03.890Z,15.70
2023-05-21T07:12:30.880Z,15.70
2023-05-21T07:14:59.280Z,15.40
2023-05-21T07:17:26.555Z,15.60
2023-05-21T07:19:53.285Z,15.60
2023-05-21T07:22:20.211Z,15.70
2023-05-21T07:24:46.845Z,15.80
2023-05-21T07:27:24.556Z,15.80
2023-05-21T07:29:52.695Z,15.70
2023-05-21T07:32:20.775Z,15.50
2023-05-21T07:34:48.112Z,15.70
2023-05-21T07:37:14.972Z,15.50
2023-05-21T07:39:41.651Z,15.40
2023-05-21T07:42:08.731Z,15.30
2023-05-21T07:44:36.272Z,15.20
2023-05-21T07:47:03.087Z,15.40
2023-05-21T07:49:29.937Z,15.50
2023-05-21T07:51:56.929Z,15.50
2023-05-21T07:54:24.665Z,15.50
2023-05-21T07:56:51.629Z,15.90
2023-05-21T07:59:38.378Z,16.10
2023-05-21T08:02:05.524Z,16.10
2023-05-21T08:04:32.271Z,16.30
2023-05-21T08:06:59.060Z,16.60
2023-05-21T08:09:26.115Z,16.50
2023-05-21T08:11:52.978Z,16.80
2023-05-21T08:14:19.728Z,17.10
2023-05-21T08:16:46.862Z,17.30
2023-05-21T08:19:13.942Z,17.70
2023-05-21T08:21:40.691Z,17.80
2023-05-21T08:24:07.612Z,17.80
2023-05-21T08:26:34.433Z,17.60
2023-05-21T08:29:02.211Z,17.10
2023-05-21T08:31:29.257Z,17.20
2023-05-21T08:33:56.461Z,17.50
2023-05-21T08:36:34.874Z,18.00
2023-05-21T08:39:08.141Z,18.10
2023-05-21T08:41:37.959Z,18.00
2023-05-21T08:44:11.251Z,18.10
2023-05-21T08:46:40.589Z,18.60
2023-05-21T08:49:11.896Z,18.70
2023-05-21T08:51:39.483Z,18.40
2023-05-21T08:54:07.433Z,18.50
2023-05-21T08:56:35.169Z,18.70
2023-05-21T08:59:03.072Z,19.20
2023-05-21T09:01:34.474Z,19.80
2023-05-21T09:04:21.873Z,20.40
2023-05-21T09:06:54.993Z,20.30
2023-05-21T09:09:47.144Z,20.60
2023-05-21T09:12:14.213Z,20.60
2023-05-21T09:14:42.760Z,20.40
2023-05-21T09:17:15.214Z,20.70
2023-05-21T09:20:13.164Z,20.70
2023-05-21T09:22:48.348Z,20.40
2023-05-21T09:25:18.614Z,20.10
2023-05-21T09:27:45.634Z,19.90
2023-05-21T09:30:15.028Z,20.10
2023-05-21T09:32:42.840Z,20.50
2023-05-21T09:35:16.278Z,20.50
2023-05-21T09:37:45.010Z,20.40
2023-05-21T09:40:19.508Z,20.20
2023-05-21T09:42:51.173Z,19.90
2023-05-21T09:45:28.090Z,20.20
2023-05-21T09:47:57.200Z,20.30
2023-05-21T09:50:27.650Z,20.30
2023-05-21T09:52:55.999Z,20.30
2023-05-21T09:55:23.652Z,20.40
2023-05-21T09:57:52.997Z,20.40
2023-05-21T10:00:24.758Z,20.60
2023-05-21T10:02:55.955Z,20.30
2023-05-21T10:05:28.578Z,20.50
2023-05-21T10:08:03.391Z,20.60
2023-05-21T10:10:33.513Z,20.50
2023-05-21T10:13:09.029Z,20.80
2023-05-21T10:15:42.237Z,20.80
2023-05-21T10:18:10.432Z,21.00
2023-05-21T10:20:38.350Z,21.50
2023-05-21T10:23:06.104Z,21.70
2023-05-21T10:25:33.543Z,21.80
2023-05-21T10:28:00.772Z,21.80
2023-05-21T10:30:27.613Z,21.60
2023-05-21T10:32:57.429Z,21.70
2023-05-21T10:35:24.612Z,21.70
2023-05-21T10:37:52.068Z,21.70
2023-05-21T10:40:18.902Z,22.10
2023-05-21T10:43:03.676Z,21.90
2023-05-21T10:46:08.055Z,22.20
2023-05-21T10:49:00.854Z,22.30
2023-05-21T10:51:48.354Z,21.60
2023-05-21T10:54:31.170Z,21.90
2023-05-21T10:56:57.771Z,22.10
2023-05-21T10:59:33.377Z,21.90
2023-05-21T11:02:01.660Z,22.40
2023-05-21T11:04:29.178Z,22.10
2023-05-21T11:06:58.044Z,22.10
2023-05-21T11:09:24.877Z,22.50
2023-05-21T11:11:52.198Z,22.30
2023-05-21T11:14:42.036Z,22.20
2023-05-21T11:17:39.528Z,22.80
2023-05-21T11:20:13.813Z,22.80
2023-05-21T11:22:40.578Z,23.00
2023-05-21T11:25:08.102Z,23.10
2023-05-21T11:27:41.786Z,22.70
2023-05-21T11:30:10.256Z,22.70
2023-05-21T11:32:57.737Z,22.40
2023-05-21T11:35:24.570Z,22.50
2023-05-21T11:37:54.007Z,22.70
2023-05-21T11:40:30.178Z,22.90
2023-05-21T11:42:57.322Z,22.90
2023-05-21T11:45:29.172Z,22.90
2023-05-21T11:47:56.342Z,22.50
2023-05-21T11:50:23.175Z,22.60
2023-05-21T11:52:50.949Z,22.70
2023-05-21T11:55:25.825Z,22.80
2023-05-21T11:57:53.317Z,22.90
2023-05-21T12:00:20.008Z,23.10
2023-05-21T12:02:50.481Z,23.10
2023-05-21T12:05:17.379Z,22.90
2023-05-21T12:07:48.744Z,23.00
2023-05-21T12:10:16.073Z,22.90
2023-05-21T12:12:54.060Z,23.00
2023-05-21T12:15:24.113Z,23.00
2023-05-21T12:17:52.714Z,23.10
2023-05-21T12:20:19.898Z,23.30
2023-05-21T12:22:48.904Z,23.30
2023-05-21T12:25:19.706Z,23.40
2023-05-21T12:27:47.562Z,23.30
2023-05-21T12:30:14.722Z,23.90
2023-05-21T12:32:45.399Z,24.20
2023-05-21T12:35:22.912Z,24.00
2023-05-21T12:37:53.616Z,24.10
2023-05-21T12:40:20.588Z,24.30
2023-05-21T12:42:47.483Z,24.10
2023-05-21T12:45:14.560Z,24.10
2023-05-21T12:47:41.417Z,23.20
2023-05-21T12:50:11.941Z,22.90
2023-05-21T12:52:40.235Z,22.60
2023-05-21T12:55:09.399Z,23.30
2023-05-21T12:57:38.672Z,23.50
2023-05-21T13:00:06.900Z,23.20
2023-05-21T13:02:44.303Z,23.20
2023-05-21T13:05:19.804Z,23.50
2023-05-21T13:07:47.861Z,23.90
2023-05-21T13:10:18.383Z,24.10
2023-05-21T13:12:45.916Z,24.70
2023-05-21T13:15:12.697Z,24.10
2023-05-21T13:17:39.515Z,24.20
2023-05-21T13:20:13.334Z,24.40
2023-05-21T13:22:47.832Z,24.30
2023-05-21T13:25:28.271Z,23.80
2023-05-21T13:27:55.357Z,23.90
2023-05-21T13:30:22.706Z,24.10
2023-05-21T13:32:49.497Z,24.30
2023-05-21T13:35:17.315Z,24.20
2023-05-21T13:37:45.358Z,24.10
2023-05-21T13:40:15.797Z,23.80
2023-05-21T13:42:47.668Z,23.70
2023-05-21T13:45:19.332Z,23.50
2023-05-21T13:47:47.654Z,23.40
2023-05-21T13:50:16.188Z,23.40
2023-05-21T13:52:42.943Z,23.10
2023-05-21T13:55:10.416Z,23.20
2023-05-21T13:57:37.326Z,23.50
2023-05-21T14:00:04.830Z,23.90
2023-05-21T14:02:34.618Z,23.90
2023-05-21T14:05:01.551Z,23.80
2023-05-21T14:07:28.192Z,24.10
2023-05-21T14:09:54.844Z,24.30
2023-05-21T14:12:21.686Z,24.40
2023-05-21T14:14:49.729Z,24.40
2023-05-21T14:17:16.486Z,24.40
2023-05-21T14:19:43.147Z,24.40
2023-05-21T14:22:09.832Z,24.40
2023-05-21T14:24:36.880Z,24.30
2023-05-21T14:27:03.660Z,24.60
2023-05-21T14:29:30.428Z,24.60
2023-05-21T14:31:57.496Z,24.70
2023-05-21T14:34:24.195Z,24.70
2023-05-21T14:36:50.840Z,25.00
2023-05-21T14:39:17.687Z,25.00
2023-05-21T14:41:44.369Z,25.00
2023-05-21T14:44:11.193Z,24.70
2023-05-21T14:46:39.313Z,24.60
2023-05-21T14:49:06.261Z,24.50
2023-05-21T14:51:32.910Z,24.50
2023-05-21T14:53:59.552Z,24.60
2023-05-21T14:56:27.905Z,24.70
2023-05-21T14:58:54.906Z,24.70
2023-05-21T15:01:21.778Z,24.90
2023-05-21T15:03:48.842Z,25.00
2023-05-21T15:06:15.886Z,24.80
2023-05-21T15:08:42.695Z,24.90
2023-05-21T15:11:09.838Z,24.90
2023-05-21T15:13:36.551Z,24.80
2023-05-21T15:16:03.486Z,25.20
2023-05-21T15:18:30.515Z,25.30
2023-05-21T15:20:58.112Z,25.40
2023-05-21T15:23:24.913Z,25.20
2023-05-21T15:25:51.724Z,25.00
2023-05-21T15:28:18.485Z,24.90
2023-05-21T15:30:45.248Z,24.90
2023-05-21T15:33:12.103Z,24.80
2023-05-21T15:35:39.250Z,24.90
2023-05-21T15:38:06.179Z,25.00
2023-05-21T15:40:33.065Z,25.00
2023-05-21T15:42:59.993Z,25.00
2023-05-21T15:45:26.650Z,25.10
2023-05-21T15:47:53.376Z,25.10
2023-05-21T15:50:20.107Z,25.10
2023-05-21T15:52:47.029Z,25.00
2023-05-21T15:55:14.045Z,24.90
2023-05-21T15:57:40.852Z,24.90
2023-05-21T16:00:08.828Z,25.00
2023-05-21T16:02:35.844Z,25.10
2023-05-21T16:05:02.627Z,25.00
2023-05-21T16:07:29.701Z,25.00
2023-05-21T16:09:56.317Z,25.00
2023-05-21T16:12:23.055Z,24.90
2023-05-21T16:14:49.994Z,24.70
2023-05-21T16:17:18.216Z,24.60
2023-05-21T16:19:45.061Z,24.40
2023-05-21T16:22:11.733Z,24.40
2023-05-21T16:24:38.430Z,24.30
2023-05-21T16:27:05.538Z,24.30
2023-05-21T16:29:32.221Z,24.30
2023-05-21T16:31:58.991Z,24.40
2023-05-21T16:34:25.803Z,24.30
2023-05-21T16:36:52.964Z,24.30
2023-05-21T16:39:19.658Z,24.30
2023-05-21T16:41:46.322Z,24.10
2023-05-21T16:44:13.895Z,24.00
2023-05-21T16:46:40.613Z,24.00
2023-05-21T16:49:07.346Z,23.90
2023-05-21T16:51:34.437Z,24.00
2023-05-21T16:54:02.741Z,24.10
2023-05-21T16:56:29.705Z,24.30
2023-05-21T16:58:56.357Z,24.30
2023-05-21T17:01:23.198Z,24.20
2023-05-21T17:03:50.010Z,24.10
2023-05-21T17:06:16.897Z,24.20
2023-05-21T17:08:43.557Z,24.20
2023-05-21T17:11:10.456Z,24.10
2023-05-21T17:13:37.356Z,24.00
2023-05-21T17:16:04.259Z,24.00
2023-05-21T17:18:31.276Z,23.90
2023-05-21T17:20:58.940Z,23.90
2023-05-21T17:23:25.692Z,23.80
2023-05-21T17:25:52.536Z,23.70
2023-05-21T17:28:19.410Z,23.70
2023-05-21T17:30:48.741Z,23.70
2023-05-21T17:33:16.525Z,23.70
2023-05-21T17:35:43.456Z,23.60
2023-05-21T17:38:10.758Z,23.60
2023-05-21T17:40:37.495Z,23.60
2023-05-21T17:43:04.843Z,23.60
2023-05-21T17:45:31.737Z,23.60
2023-05-21T17:48:00.496Z,23.50
2023-05-21T17:50:28.068Z,23.40
2023-05-21T17:52:54.876Z,23.50
2023-05-21T17:55:21.613Z,23.50
2023-05-21T17:57:48.581Z,23.30
2023-05-21T18:00:15.701Z,23.20
2023-05-21T18:02:42.446Z,23.00
2023-05-21T18:05:09.206Z,22.90
2023-05-21T18:07:37.367Z,22.80
2023-05-21T18:10:04.387Z,22.70
2023-05-21T18:12:31.061Z,22.70
2023-05-21T18:14:58.427Z,22.60
2023-05-21T18:17:25.148Z,22.60
2023-05-21T18:19:51.934Z,22.50
2023-05-21T18:22:18.643Z,22.40
2023-05-21T18:24:46.155Z,22.30
2023-05-21T18:27:13.391Z,22.30
2023-05-21T18:29:40.023Z,22.20
2023-05-21T18:32:07.360Z,22.20
2023-05-21T18:34:34.070Z,22.10
2023-05-21T18:37:00.798Z,22.10
2023-05-21T18:39:27.930Z,22.00
2023-05-21T18:42:11.575Z,21.90
2023-05-21T18:44:39.873Z,21.90
2023-05-21T18:47:07.433Z,21.80
2023-05-21T18:49:36.670Z,21.70
2023-05-21T18:52:04.698Z,21.60
2023-05-21T18:54:31.636Z,21.60
2023-05-21T18:57:00.173Z,21.50
2023-05-21T18:59:28.233Z,21.40
2023-05-21T19:01:55.361Z,21.40
2023-05-21T19:04:22.352Z,21.40
2023-05-21T19:06:49.010Z,21.40
2023-05-21T19:09:15.768Z,21.40
2023-05-21T19:11:42.565Z,21.40
2023-05-21T19:14:09.258Z,21.40
2023-05-21T19:16:36.161Z,21.30
2023-05-21T19:19:03.975Z,21.30
2023-05-21T19:21:31.352Z,21.20
2023-05-21T19:23:58.563Z,21.20
2023-05-21T19:26:25.474Z,21.30
2023-05-21T19:28:54.191Z,21.30
2023-05-21T19:31:21.894Z,21.40
2023-05-21T19:33:48.721Z,21.40
2023-05-21T19:36:15.642Z,21.40
2023-05-21T19:38:50.099Z,21.30
2023-05-21T19:41:17.687Z,21.20
2023-05-21T19:43:45.476Z,21.20
2023-05-21T19:46:12.280Z,21.20
2023-05-21T19:48:39.156Z,21.10
2023-05-21T19:51:05.925Z,21.00
2023-05-21T19:53:32.664Z,21.10
2023-05-21T19:55:59.781Z,21.00
2023-05-21T19:58:29.110Z,21.00
2023-05-21T20:00:58.426Z,21.00
2023-05-21T20:03:26.363Z,21.00
2023-05-21T20:05:53.277Z,21.00
2023-05-21T20:08:21.053Z,20.90
2023-05-21T20:10:51.199Z,20.70
2023-05-21T20:13:18.658Z,20.70
2023-05-21T20:15:45.502Z,20.70
2023-05-21T20:18:12.555Z,20.70
2023-05-21T20:20:40.795Z,20.60
2023-05-21T20:23:07.999Z,20.60
2023-05-21T20:25:34.697Z,20.50
2023-05-21T20:28:02.530Z,20.50
2023-05-21T20:30:33.333Z,20.50
2023-05-21T20:33:03.799Z,20.50
2023-05-21T20:35:30.543Z,20.50
2023-05-21T20:37:57.367Z,20.50
2023-05-21T20:40:24.234Z,20.50
2023-05-21T20:42:53.192Z,20.40
2023-05-21T20:45:20.658Z,20.40
2023-05-21T20:47:48.052Z,20.40
2023-05-21T20:50:17.241Z,20.40
2023-05-21T20:52:46.883Z,20.30
2023-05-21T20:55:14.317Z,20.20
2023-05-21T20:57:41.361Z,20.20
2023-05-21T21:00:10.809Z,20.10
2023-05-21T21:02:38.628Z,20.10
2023-05-21T21:05:06.194Z,20.00
2023-05-21T21:07:34.039Z,19.90
2023-05-21T21:10:01.267Z,19.90
2023-05-21T21:12:27.928Z,19.80
2023-05-21T21:14:54.905Z,19.80
2023-05-21T21:17:21.784Z,19.80
2023-05-21T21:19:48.471Z,20.00
2023-05-21T21:22:15.994Z,19.90
2023-05-21T21:24:43.077Z,19.80
2023-05-21T21:27:09.757Z,19.80
2023-05-21T21:29:36.656Z,19.80
2023-05-21T21:32:03.468Z,19.80
2023-05-21T21:34:30.360Z,19.70
2023-05-21T21:36:57.186Z,19.60
2023-05-21T21:39:26.020Z,19.60
2023-05-21T21:41:52.789Z,19.50
2023-05-21T21:44:19.446Z,19.40
2023-05-21T21:46:46.231Z,19.40
2023-05-21T21:49:14.247Z,19.40
2023-05-21T21:51:41.011Z,19.40
2023-05-21T21:54:07.659Z,19.50
2023-05-21T21:56:34.442Z,19.50
2023-05-21T21:59:01.136Z,19.50
2023-05-21T22:01:28.027Z,19.60
2023-05-21T22:03:54.742Z,19.70
2023-05-21T22:06:21.459Z,19.70
2023-05-21T22:08:48.457Z,19.70
2023-05-21T22:11:15.470Z,19.70
2023-05-21T22:13:42.127Z,19.70
2023-05-21T22:16:08.821Z,19.80
2023-05-21T22:18:40.100Z,19.80
2023-05-21T22:21:09.323Z,19.70
2023-05-21T22:23:36.933Z,19.80
2023-05-21T22:26:04.240Z,19.70
2023-05-21T22:28:30.979Z,19.70
2023-05-21T22:30:58.997Z,19.80
2023-05-21T22:33:26.524Z,19.70
2023-05-21T22:35:54.090Z,19.70
2023-05-21T22:38:20.959Z,19.70
2023-05-21T22:40:47.686Z,19.70
2023-05-21T22:43:14.477Z,19.60
2023-05-21T22:45:41.178Z,19.50
2023-05-21T22:48:09.336Z,19.20
2023-05-21T22:50:38.111Z,18.90
2023-05-21T22:53:05.548Z,18.70
2023-05-21T22:55:32.250Z,18.30
2023-05-21T22:57:58.919Z,18.10
2023-05-21T23:00:26.026Z,17.80
2023-05-21T23:02:54.473Z,17.80
2023-05-21T23:05:22.522Z,17.70
2023-05-21T23:07:49.432Z,17.80
2023-05-21T23:10:16.192Z,17.60
2023-05-21T23:12:42.894Z,17.60
2023-05-21T23:15:10.617Z,17.50
2023-05-21T23:17:38.095Z,17.60
2023-05-21T23:20:09.078Z,17.50
2023-05-21T23:22:36.602Z,17.40
2023-05-21T23:25:03.776Z,17.40
2023-05-21T23:27:30.434Z,17.30
2023-05-21T23:29:57.106Z,17.30
2023-05-21T23:32:24.084Z,17.30
2023-05-21T23:34:50.978Z,17.20
2023-05-21T23:37:17.735Z,17.20
2023-05-21T23:39:47.986Z,17.10
2023-05-21T23:42:17.985Z,17.10
2023-05-21T23:44:44.847Z,16.90
2023-05-21T23:47:11.578Z,16.90
2023-05-21T23:49:39.420Z,16.80
2023-05-21T23:52:07.017Z,16.70
2023-05-21T23:54:33.725Z,16.60
2023-05-21T23:57:00.811Z,16.40
2023-05-21T23:59:27.505Z,16.30
